• Join FlightAware (Why Join?)
  • Login
  • US Flag 
03:23AM EDT


 

Airport Tracker/Info


-or-


 

Live Flight TrackerFlight Track Log ✈ CTL337 ✈ 15-Jun-2013 ✈ KOSU - KHAO

Flight Track Log - Related Links

Times and Time Zones

All times are in EDT time to prevent confusion due to time zone crossing. See the CTL337 flight status page for this flight to view local times or setup timezone preferences in your user account.

Time Position Orientation Groundspeed Altitude Reporting Facility
EDT Latitude Longitude Course Direction KTS MPH feet Rate Location/Type
03:33AM 40.0511 -83.1472 239° Southwest 107 123 3,800  Level Indianapolis Center
03:34AM 40.0342 -83.1833 239° Southwest 105 121 5,200 1,020 Climbing Indianapolis Center
03:35AM 40.0172 -83.2142 234° Southwest 106 122 6,100 480 Climbing Indianapolis Center
03:36AM 39.9931 -83.2603 236° Southwest 158 182 6,200 -120 Climbing Indianapolis Center
03:37AM 39.9664 -83.3114 236° Southwest 175 201 5,900 -60 Descending Indianapolis Center
03:38AM 39.9417 -83.3628 238° Southwest 167 192 6,100  Climbing Indianapolis Center
03:39AM 39.9175 -83.4117 237° Southwest 167 192 5,900 -120 Descending Indianapolis Center
03:40AM 39.8906 -83.4628 236° Southwest 169 194 5,900  Level Indianapolis Center
03:41AM 39.8678 -83.5169 241° Southwest 164 189 5,900  Level Indianapolis Center
03:42AM 39.8431 -83.5683 238° Southwest 167 192 5,900  Level Indianapolis Center
03:43AM 39.8231 -83.6172 242° Southwest 161 185 6,000 120 Climbing Indianapolis Center
03:44AM 39.8017 -83.6772 245° Southwest 161 185 6,200 60 Climbing Indianapolis Center
03:45AM 39.7831 -83.7292 245° Southwest 157 181 6,200 -60 Level Indianapolis Center
03:46AM 39.7622 -83.7836 244° Southwest 162 186 6,100 -60 Descending Indianapolis Center
03:47AM 39.7439 -83.8267 241° Southwest 162 186 6,100 -60 Level Indianapolis Center
03:48AM 39.7178 -83.8769 236° Southwest 165 190 6,000 -60 Descending Indianapolis Center
03:49AM 39.6872 -83.9239 230° Southwest 168 193 6,000  Level Indianapolis Center
03:50AM 39.6653 -83.9769 242° Southwest 166 191 6,000  Level Indianapolis Center
03:51AM 39.6428 -84.0297 241° Southwest 166 191 6,000 -300 Level Indianapolis Center
03:52AM 39.6181 -84.0839 239° Southwest 170 196 5,500 -480 Descending Indianapolis Center
03:53AM 39.5919 -84.1411 239° Southwest 179 206 5,100 -480 Descending Indianapolis Center
03:54AM 39.5700 -84.1958 243° Southwest 174 200 4,600 -360 Descending Indianapolis Center
03:55AM 39.5469 -84.2500 241° Southwest 171 197 4,400 -300 Descending Indianapolis Center
03:56AM 39.5133 -84.2956 226° Southwest 172 198 4,100 -240 Descending Indianapolis Center
03:57AM 39.4833 -84.3436 231° Southwest 171 197 4,000 -180 Descending Indianapolis Center
03:58AM 39.4503 -84.3897 227° Southwest 168 193 3,800 -240 Descending Indianapolis Center
04:00AM 39.3921 -84.4449 243° Southwest  Level FlightAware Approximate
04:07AM 39.3500 -84.5167 229° Southwest  Level FlightAware Approximate
04:08AM 39.3638 -84.5219 229° Southwest  Level Estimated